Time;durP1;ratioP1;P1;durP2;ratioP2;P2;SDS_P1;SDS_P2;PMS_P1;PMS_P2;Temp;Humidity;BMP_temperature;BMP_pressure;BME280_temperature;BME280_humidity;BME280_pressure;Samples;Min_cycle;Max_cycle;Signal;HPM_P1;HPM_P2
2022/09/25 00:00:58;;;;;;;;;6.33;4.00;;;;;15.99;61.53;101083.91;5099233;27;45448;-58
2022/09/25 00:03:26;;;;;;;;;7.67;5.00;;;;;15.91;61.92;101079.41;5099173;27;45392;-52
2022/09/25 00:05:52;;;;;;;;;6.00;6.00;;;;;15.98;61.64;101093.00;5099440;27;45364;-43
2022/09/25 00:08:18;;;;;;;;;7.00;6.00;;;;;15.95;61.88;101094.16;5098958;27;45908;-43
2022/09/25 00:10:46;;;;;;;;;3.33;3.00;;;;;15.95;61.97;101094.16;5099081;27;45364;-43
2022/09/25 00:13:12;;;;;;;;;4.00;4.00;;;;;15.96;62.05;101106.56;5099175;27;45275;-47
2022/09/25 00:15:43;;;;;;;;;6.67;6.00;;;;;15.97;61.99;101107.41;5099252;27;45471;-50
2022/09/25 00:18:09;;;;;;;;;4.33;4.33;;;;;15.95;61.84;101098.69;5098872;27;45526;-52
2022/09/25 00:20:35;;;;;;;;;6.00;6.00;;;;;15.96;61.79;101098.50;5098912;27;45454;-53
2022/09/25 00:23:01;;;;;;;;;6.33;6.33;;;;;15.94;61.83;101102.41;5098922;27;45453;-45
2022/09/25 00:25:27;;;;;;;;;10.00;8.00;;;;;15.92;61.62;101113.28;5099008;27;45400;-51
2022/09/25 00:27:54;;;;;;;;;10.67;5.00;;;;;15.84;61.63;101091.00;5098658;27;46350;-53
2022/09/25 00:30:19;;;;;;;;;6.00;6.00;;;;;15.93;62.01;101111.47;5098866;27;45260;-44
2022/09/25 00:32:44;;;;;;;;;6.00;5.00;;;;;15.92;62.22;101112.44;5098936;27;45354;-47
2022/09/25 00:35:09;;;;;;;;;8.67;5.00;;;;;15.92;61.84;101115.13;5080666;27;45228;-54
2022/09/25 00:37:35;;;;;;;;;3.33;3.33;;;;;15.92;61.98;101109.75;5098559;27;45449;-57
2022/09/25 00:40:02;;;;;;;;;4.67;4.67;;;;;15.91;62.17;101106.25;5098780;27;45325;-52
2022/09/25 00:42:28;;;;;;;;;5.00;4.00;;;;;15.87;62.11;101112.97;5097325;27;45273;-59
2022/09/25 00:44:58;;;;;;;;;3.00;3.00;;;;;15.87;62.04;101106.75;5098848;27;45474;-55
2022/09/25 00:47:33;;;;;;;;;4.00;4.00;;;;;15.83;62.04;101095.53;5098472;27;46533;-51
2022/09/25 00:50:02;;;;;;;;;7.67;4.00;;;;;15.85;62.36;101115.00;5098404;27;45272;-52
2022/09/25 00:52:29;;;;;;;;;1.67;1.00;;;;;15.83;62.57;101098.22;5098545;27;45423;-50
2022/09/25 00:55:00;;;;;;;;;7.00;3.00;;;;;15.80;62.44;101097.72;5080436;27;45480;-55
2022/09/25 00:57:30;;;;;;;;;7.67;5.00;;;;;15.79;62.42;101094.22;5098105;27;45292;-50
2022/09/25 01:00:01;;;;;;;;;3.33;3.33;;;;;15.79;62.36;101101.41;5098315;27;45404;-53
2022/09/25 01:02:30;;;;;;;;;6.00;4.00;;;;;15.76;62.44;101101.75;5098399;27;45283;-41
2022/09/25 01:05:00;;;;;;;;;5.67;3.33;;;;;15.74;62.65;101101.09;5098598;27;45312;-50
2022/09/25 01:07:25;;;;;;;;;6.67;6.00;;;;;15.71;62.48;101091.53;5097983;27;46102;-44
2022/09/25 01:09:51;;;;;;;;;4.67;4.67;;;;;15.68;62.70;101095.44;5098225;27;45300;-47
2022/09/25 01:12:16;;;;;;;;;5.00;5.00;;;;;15.71;62.65;101095.06;5098336;27;45469;-42
2022/09/25 01:14:42;;;;;;;;;8.00;4.00;;;;;15.64;62.65;101095.91;5098955;27;45489;-42
2022/09/25 01:17:28;;;;;;;;;6.33;5.00;;;;;15.67;62.55;101101.81;5098394;27;45277;-49
2022/09/25 01:20:20;;;;;;;;;5.67;5.33;;;;;15.66;62.64;101108.16;5097661;27;45391;-52
2022/09/25 01:22:56;;;;;;;;;10.67;5.67;;;;;15.64;62.58;101099.47;5097819;27;45481;-42
2022/09/25 01:25:36;;;;;;;;;5.00;5.00;;;;;15.63;62.73;101104.94;5098107;27;45408;-43
2022/09/25 01:28:20;;;;;;;;;4.00;4.00;;;;;15.64;62.98;101102.13;5097595;27;46383;-48
2022/09/25 01:30:50;;;;;;;;;9.00;3.00;;;;;15.62;62.42;101104.09;5097338;27;45458;-45
2022/09/25 01:33:26;;;;;;;;;5.00;3.33;;;;;15.56;62.72;101101.28;5097979;27;45424;-51
2022/09/25 01:35:58;;;;;;;;;3.33;3.33;;;;;15.56;62.99;101102.13;5098043;27;45240;-49
2022/09/25 01:38:45;;;;;;;;;9.00;7.00;;;;;15.47;62.66;101081.69;5097403;27;45993;-42
2022/09/25 01:41:32;;;;;;;;;3.00;2.00;;;;;15.54;62.83;101097.94;5097282;27;45197;-50
2022/09/25 01:44:13;;;;;;;;;5.00;5.00;;;;;15.52;62.81;101089.22;5097593;27;45468;-47
2022/09/25 01:47:07;;;;;;;;;6.33;4.00;;;;;15.51;63.06;101087.56;5097666;27;45491;-45
2022/09/25 01:49:38;;;;;;;;;9.00;7.00;;;;;15.53;63.31;101093.56;4994209;28;45432;-47
2022/09/25 01:52:10;;;;;;;;;5.67;4.00;;;;;15.53;62.96;101093.56;4994745;28;45410;-45
2022/09/25 01:54:41;;;;;;;;;4.00;4.00;;;;;15.52;63.18;101094.59;4994563;28;45435;-45
2022/09/25 01:57:12;;;;;;;;;5.67;5.00;;;;;15.52;63.26;101094.59;4994939;28;45465;-44
2022/09/25 02:00:00;;;;;;;;;12.00;5.00;;;;;15.52;63.21;101091.91;4994409;28;46138;-42
2022/09/25 02:02:32;;;;;;;;;4.67;4.67;;;;;15.53;63.12;101096.25;4994512;28;45357;-46
2022/09/25 02:05:04;;;;;;;;;7.00;4.00;;;;;15.51;63.14;101096.44;4994808;28;45274;-42
2022/09/25 02:07:35;;;;;;;;;5.00;4.00;;;;;15.47;63.41;101095.94;4994777;28;45302;-41
2022/09/25 02:10:07;;;;;;;;;7.00;7.00;;;;;15.50;63.52;101110.81;4993460;28;45571;-46
2022/09/25 02:12:57;;;;;;;;;4.67;4.00;;;;;15.42;63.49;101092.06;4994271;28;45363;-42
2022/09/25 02:15:28;;;;;;;;;7.67;7.67;;;;;15.48;63.50;101100.28;4994701;28;45458;-44
2022/09/25 02:20:49;;;;;;;;;6.67;6.67;;;;;15.46;63.78;101094.28;4994280;28;45281;-45
2022/09/25 02:23:22;;;;;;;;;8.33;7.00;;;;;15.49;63.78;101090.41;4994270;28;45445;-47
2022/09/25 02:25:58;;;;;;;;;10.00;7.67;;;;;15.47;63.57;101087.06;5016949;27;45425;-51
2022/09/25 02:28:24;;;;;;;;;8.67;7.00;;;;;15.49;63.94;101095.75;5097393;27;45322;-44
2022/09/25 02:30:53;;;;;;;;;4.67;4.67;;;;;15.47;63.77;101089.75;5096778;27;46220;-48
2022/09/25 02:33:19;;;;;;;;;7.00;7.00;;;;;15.40;63.81;101081.53;5096944;27;45255;-43
2022/09/25 02:35:44;;;;;;;;;4.67;4.67;;;;;15.47;64.03;101098.63;5097101;27;45476;-55
2022/09/25 02:38:10;;;;;;;;;10.00;5.67;;;;;15.44;63.83;101098.13;5097282;27;45492;-45
2022/09/25 02:40:47;;;;;;;;;8.33;5.67;;;;;15.43;63.51;101091.09;5095505;27;45538;-46
2022/09/25 02:43:43;;;;;;;;;8.33;5.00;;;;;15.42;63.60;101092.06;5096907;27;45390;-42
2022/09/25 02:46:47;;;;;;;;;6.00;5.00;;;;;15.37;63.91;101094.44;5096987;27;45432;-45
2022/09/25 02:49:21;;;;;;;;;9.67;6.00;;;;;15.34;63.87;101100.16;5097290;27;45239;-45
2022/09/25 02:52:15;;;;;;;;;9.33;5.33;;;;;15.30;63.80;101098.81;5096790;27;46016;-51
2022/09/25 02:54:52;;;;;;;;;8.00;5.00;;;;;15.22;63.97;101097.81;5096466;27;45236;-42
2022/09/25 02:57:27;;;;;;;;;9.67;5.00;;;;;15.16;64.63;101103.81;5096983;27;45431;-41
2022/09/25 02:59:58;;;;;;;;;8.67;5.00;;;;;15.08;65.02;101108.34;5097177;27;45351;-43
2022/09/25 03:02:26;;;;;;;;;10.00;4.67;;;;;15.03;65.10;101111.53;5096507;27;45284;-49
2022/09/25 03:04:54;;;;;;;;;7.67;4.67;;;;;14.98;65.28;101106.66;5096443;27;45252;-51
2022/09/25 03:07:20;;;;;;;;;10.67;7.67;;;;;14.94;65.57;101110.69;5100106;27;45350;-42
2022/09/25 03:09:50;;;;;;;;;8.33;8.00;;;;;14.91;65.62;101116.38;5100145;27;45318;-41
2022/09/25 03:12:16;;;;;;;;;9.67;5.00;;;;;14.90;65.32;101114.69;5099951;27;46197;-42
2022/09/25 03:14:41;;;;;;;;;9.67;5.67;;;;;14.82;65.74;101095.94;5100062;27;45555;-44
2022/09/25 03:17:08;;;;;;;;;6.33;4.67;;;;;14.93;65.25;101122.41;5099861;27;45309;-42
2022/09/25 03:19:34;;;;;;;;;10.00;7.33;;;;;14.94;65.68;101123.25;5100060;27;45501;-42
2022/09/25 03:22:00;;;;;;;;;12.67;7.33;;;;;14.92;65.81;101117.22;5099619;27;46276;-47
2022/09/25 03:24:26;;;;;;;;;6.00;4.33;;;;;14.92;66.01;101120.75;5099832;27;45499;-47
2022/09/25 03:26:55;;;;;;;;;7.67;3.00;;;;;14.84;65.75;101104.66;5099855;27;45362;-42
2022/09/25 03:29:21;;;;;;;;;6.00;6.00;;;;;14.92;65.23;101115.38;5099980;27;45344;-42
2022/09/25 03:31:47;;;;;;;;;8.67;5.00;;;;;14.88;65.87;101119.41;5099555;27;45467;-43
2022/09/25 03:34:16;;;;;;;;;8.67;8.00;;;;;14.85;66.00;101129.59;5099562;27;45426;-45
2022/09/25 03:36:45;;;;;;;;;14.33;11.00;;;;;14.86;66.00;101133.94;5099595;27;45457;-41
2022/09/25 03:39:13;;;;;;;;;5.67;5.67;;;;;14.83;65.84;101128.91;5099645;27;45212;-47
2022/09/25 03:41:39;;;;;;;;;7.33;5.33;;;;;14.88;66.16;101138.16;5099387;27;45456;-42
2022/09/25 03:44:04;;;;;;;;;10.00;7.67;;;;;14.90;66.23;101136.13;5099246;27;45525;-48
2022/09/25 03:46:33;;;;;;;;;10.00;8.00;;;;;14.95;65.90;101141.81;5099588;27;45702;-44
2022/09/25 03:48:59;;;;;;;;;10.00;9.00;;;;;14.98;65.49;101138.81;5099731;27;45304;-43
2022/09/25 03:51:26;;;;;;;;;9.67;7.00;;;;;14.98;65.66;101138.81;5099556;27;46596;-47
2022/09/25 03:53:54;;;;;;;;;11.67;9.00;;;;;14.97;65.79;101139.00;5099123;27;45335;-48
2022/09/25 03:56:24;;;;;;;;;7.67;5.00;;;;;14.95;65.76;101135.63;5099362;27;45390;-43
2022/09/25 03:58:50;;;;;;;;;10.33;7.67;;;;;14.96;65.86;101140.84;5098788;27;46097;-43
2022/09/25 04:01:18;;;;;;;;;8.33;8.00;;;;;14.94;66.22;101140.16;5099036;27;47399;-49
2022/09/25 04:03:46;;;;;;;;;8.33;8.00;;;;;14.89;65.75;101145.16;5099001;27;45486;-46
2022/09/25 04:06:14;;;;;;;;;9.00;5.00;;;;;14.88;66.04;101142.66;5099344;27;45544;-42
2022/09/25 04:08:39;;;;;;;;;9.67;8.00;;;;;14.88;66.05;101143.50;5099377;27;45417;-42
2022/09/25 04:11:05;;;;;;;;;9.00;7.67;;;;;14.89;65.71;101149.69;5098811;27;45310;-43
2022/09/25 04:13:34;;;;;;;;;8.67;8.00;;;;;14.83;66.00;101142.31;5098800;27;45237;-42
2022/09/25 04:16:00;;;;;;;;;9.00;8.00;;;;;14.87;65.95;101141.81;5099068;27;45977;-42
2022/09/25 04:18:30;;;;;;;;;9.00;8.00;;;;;14.87;65.83;101152.53;5099092;27;45403;-42
2022/09/25 04:21:03;;;;;;;;;6.33;5.67;;;;;14.89;65.75;101138.97;5098741;27;47308;-43
2022/09/25 04:23:29;;;;;;;;;5.00;4.00;;;;;14.91;65.80;101145.00;5098702;27;45524;-42
2022/09/25 04:25:55;;;;;;;;;7.00;5.67;;;;;14.93;65.77;101146.53;5098751;27;45323;-42
2022/09/25 04:28:22;;;;;;;;;9.00;6.00;;;;;14.88;65.44;101138.16;5099167;27;45429;-46
2022/09/25 04:30:47;;;;;;;;;7.33;7.33;;;;;14.93;65.68;101149.19;5098604;27;46084;-43
2022/09/25 04:35:57;;;;;;;;;8.00;7.00;;;;;14.92;65.71;101147.53;5098772;27;45317;-46
2022/09/25 04:38:23;;;;;;;;;9.00;9.00;;;;;14.93;65.51;101154.56;5098884;27;45432;-46
2022/09/25 04:40:48;;;;;;;;;10.33;8.33;;;;;14.92;65.73;101144.03;5098260;27;46181;-43
2022/09/25 04:43:13;;;;;;;;;9.00;8.67;;;;;14.94;65.69;101152.72;5098621;27;45404;-46
2022/09/25 04:45:39;;;;;;;;;7.00;6.67;;;;;14.92;65.41;101147.53;5098825;27;45686;-50
2022/09/25 04:48:05;;;;;;;;;15.00;13.00;;;;;14.82;65.88;101135.28;5098675;27;45384;-44
2022/09/25 04:50:31;;;;;;;;;13.00;8.00;;;;;14.85;65.66;101143.00;5098407;27;45437;-43
2022/09/25 04:52:57;;;;;;;;;14.67;9.00;;;;;14.92;65.56;101157.41;5098365;27;45375;-41
2022/09/25 04:55:23;;;;;;;;;15.33;9.00;;;;;14.89;65.55;101161.25;5098498;27;45401;-48
2022/09/25 04:57:55;;;;;;;;;13.00;7.67;;;;;14.89;65.86;101161.25;5098678;27;45346;-41
2022/09/25 05:00:23;;;;;;;;;13.33;11.33;;;;;14.90;65.60;101159.41;5098384;27;46371;-44
2022/09/25 05:02:48;;;;;;;;;16.33;11.00;;;;;14.87;65.80;101173.94;5098050;27;45303;-46
2022/09/25 05:05:14;;;;;;;;;13.67;9.67;;;;;14.88;65.58;101164.94;5098334;27;45526;-53
2022/09/25 05:07:53;;;;;;;;;13.33;11.00;;;;;14.80;65.28;101156.03;5098738;27;45196;-43
2022/09/25 05:10:19;;;;;;;;;16.67;10.67;;;;;14.87;65.48;101173.94;5097656;27;45551;-43
2022/09/25 05:12:46;;;;;;;;;15.33;11.67;;;;;14.86;65.51;101174.97;5097882;27;45370;-42
2022/09/25 05:15:12;;;;;;;;;16.00;11.00;;;;;14.85;65.59;101175.97;5098442;27;45459;-42
2022/09/25 05:17:37;;;;;;;;;16.33;11.00;;;;;14.85;65.57;101175.13;5098269;27;45414;-50
2022/09/25 05:20:03;;;;;;;;;19.00;14.33;;;;;14.88;65.56;101182.84;5098188;27;45406;-42
2022/09/25 05:22:28;;;;;;;;;13.00;10.33;;;;;14.84;65.27;101179.66;5097786;27;45311;-48
2022/09/25 05:24:53;;;;;;;;;13.00;11.33;;;;;14.85;65.57;101181.31;5097896;27;45355;-44
2022/09/25 05:27:20;;;;;;;;;22.33;14.33;;;;;14.87;65.60;101194.53;5098349;27;45226;-41
2022/09/25 05:29:45;;;;;;;;;16.33;8.00;;;;;14.87;65.49;101194.53;5097075;27;46166;-41
2022/09/25 05:32:10;;;;;;;;;17.00;12.00;;;;;14.85;65.40;101194.72;5097720;27;45245;-43
2022/09/25 05:34:36;;;;;;;;;13.33;13.00;;;;;14.87;65.63;101198.06;5097944;27;45216;-45
2022/09/25 05:37:02;;;;;;;;;17.33;10.33;;;;;14.82;65.24;101183.50;5098018;27;45304;-50
2022/09/25 05:39:28;;;;;;;;;13.67;10.00;;;;;14.82;65.25;101184.31;5097702;27;46224;-45
2022/09/25 05:41:53;;;;;;;;;17.33;11.00;;;;;14.84;65.34;101193.06;5096296;27;45505;-41
2022/09/25 05:44:20;;;;;;;;;13.33;9.67;;;;;14.83;64.86;101188.69;5097844;27;45333;-41
2022/09/25 05:46:45;;;;;;;;;18.67;14.00;;;;;14.77;65.22;101185.81;5097821;27;45440;-44
2022/09/25 05:49:11;;;;;;;;;16.00;14.00;;;;;14.73;64.80;101183.47;5097228;27;46160;-46
2022/09/25 05:51:36;;;;;;;;;12.00;10.00;;;;;14.69;65.12;101198.19;5097576;27;45421;-48
2022/09/25 05:54:01;;;;;;;;;17.33;12.00;;;;;14.64;65.39;101194.31;5097504;27;45178;-45
2022/09/25 05:56:27;;;;;;;;;15.00;15.00;;;;;14.62;65.26;101197.19;5097828;27;45382;-42
2022/09/25 05:58:54;;;;;;;;;15.00;10.67;;;;;14.61;65.15;101200.81;5078860;27;46199;-42
2022/09/25 06:01:19;;;;;;;;;11.00;10.00;;;;;14.56;65.49;101199.66;5097225;27;45232;-43
2022/09/25 06:03:45;;;;;;;;;15.00;10.67;;;;;14.64;65.46;101205.88;5079094;27;45674;-44
2022/09/25 06:06:10;;;;;;;;;15.33;14.00;;;;;14.63;65.38;101206.03;5097575;27;45489;-47
2022/09/25 06:08:36;;;;;;;;;14.33;11.33;;;;;14.62;65.27;101205.22;5097370;27;45454;-44
2022/09/25 06:11:01;;;;;;;;;10.00;10.00;;;;;14.60;65.69;101199.16;5097246;27;45350;-43
2022/09/25 06:13:30;;;;;;;;;12.00;10.00;;;;;14.68;65.36;101209.06;5097536;27;45400;-44
2022/09/25 06:15:56;;;;;;;;;15.33;14.33;;;;;14.68;65.29;101201.88;5097604;27;45522;-45
2022/09/25 06:18:23;;;;;;;;;10.67;10.33;;;;;14.78;65.06;101215.13;5096783;27;46321;-43
2022/09/25 06:20:49;;;;;;;;;17.00;12.67;;;;;14.80;64.79;101221.16;5097315;27;45339;-45
2022/09/25 06:23:16;;;;;;;;;9.00;5.67;;;;;14.86;64.45;101225.00;5078993;27;45225;-42
2022/09/25 06:25:41;;;;;;;;;12.00;10.00;;;;;14.86;64.28;101219.66;5097319;27;45449;-44
2022/09/25 06:28:09;;;;;;;;;11.00;10.00;;;;;14.86;64.30;101211.63;5097390;27;45279;-43
2022/09/25 06:30:35;;;;;;;;;14.00;9.67;;;;;14.97;63.99;101211.34;5097218;27;45306;-42
2022/09/25 06:33:06;;;;;;;;;9.00;8.33;;;;;14.95;63.97;101207.97;5097310;27;45507;-44
2022/09/25 06:35:33;;;;;;;;;13.67;10.33;;;;;15.05;63.86;101206.00;5097224;27;45496;-43
2022/09/25 06:38:00;;;;;;;;;10.67;6.67;;;;;15.23;63.29;101224.59;5096654;27;46173;-44
2022/09/25 06:40:27;;;;;;;;;10.00;9.00;;;;;15.23;63.23;101225.44;5097300;27;45512;-42
2022/09/25 06:42:57;;;;;;;;;11.00;9.00;;;;;15.22;62.80;101237.16;5100169;27;45324;-42
2022/09/25 06:45:23;;;;;;;;;11.00;9.00;;;;;15.11;62.77;101234.78;5100704;27;45253;-44
2022/09/25 06:47:48;;;;;;;;;11.33;8.67;;;;;14.97;63.19;101243.47;5100473;27;46194;-44
2022/09/25 06:50:13;;;;;;;;;9.67;7.00;;;;;14.94;63.13;101241.94;5100419;27;45319;-43
2022/09/25 06:52:43;;;;;;;;;9.33;7.00;;;;;14.90;63.07;101237.09;5100627;27;45344;-52
2022/09/25 06:55:09;;;;;;;;;10.00;9.00;;;;;14.84;63.14;101233.22;5100789;27;45324;-43
2022/09/25 06:57:37;;;;;;;;;5.67;5.67;;;;;14.82;63.36;101224.50;5100057;27;46016;-43
2022/09/25 07:00:06;;;;;;;;;5.33;5.00;;;;;14.83;63.16;101234.25;5100179;27;45470;-42
2022/09/25 07:05:17;;;;;;;;;9.33;6.33;;;;;14.77;63.28;101239.38;5100502;27;45405;-47
2022/09/25 07:07:43;;;;;;;;;11.00;7.00;;;;;14.81;63.36;101238.06;5081871;27;47368;-46
2022/09/25 07:10:09;;;;;;;;;9.33;9.33;;;;;14.77;63.22;101236.72;5100152;27;45251;-43
2022/09/25 07:12:34;;;;;;;;;8.33;5.00;;;;;14.79;63.34;101237.38;5099906;27;45398;-43
2022/09/25 07:15:00;;;;;;;;;10.67;8.00;;;;;14.88;62.96;101244.47;5100286;27;45315;-46
2022/09/25 07:17:25;;;;;;;;;13.33;9.00;;;;;14.97;62.58;101246.16;5081651;27;46092;-44
2022/09/25 07:19:50;;;;;;;;;7.33;4.33;;;;;15.00;62.60;101243.16;5099959;27;45244;-49
2022/09/25 07:22:16;;;;;;;;;10.33;7.00;;;;;14.96;62.40;101233.78;5099924;27;46531;-58
2022/09/25 07:24:41;;;;;;;;;10.00;8.00;;;;;14.92;62.50;101229.75;5100092;27;45254;-45
2022/09/25 07:27:06;;;;;;;;;6.67;5.33;;;;;14.88;62.48;101234.56;5099896;27;46072;-49
2022/09/25 07:29:34;;;;;;;;;7.00;5.00;;;;;14.93;62.42;101244.81;5099771;27;45228;-44
2022/09/25 07:32:00;;;;;;;;;9.33;4.33;;;;;14.95;62.49;101242.78;5099933;27;45321;-48
2022/09/25 07:34:25;;;;;;;;;4.00;4.00;;;;;14.94;62.41;101243.78;5100159;27;45464;-44
2022/09/25 07:36:51;;;;;;;;;4.67;4.00;;;;;14.92;62.47;101251.16;5099433;27;46909;-55
2022/09/25 07:39:17;;;;;;;;;2.67;2.67;;;;;14.92;62.50;101245.81;5099789;27;45411;-50
2022/09/25 07:41:42;;;;;;;;;4.00;4.00;;;;;14.90;62.26;101247.81;5099300;27;45503;-47
2022/09/25 07:44:07;;;;;;;;;4.00;4.00;;;;;14.89;62.48;101246.13;5099806;27;45291;-55
2022/09/25 07:46:33;;;;;;;;;6.33;4.33;;;;;14.88;62.33;101256.00;5098843;27;45517;-55
2022/09/25 07:48:59;;;;;;;;;4.33;4.33;;;;;14.90;62.38;101250.47;5099384;27;45389;-46
2022/09/25 07:51:25;;;;;;;;;7.33;4.67;;;;;14.89;62.37;101248.81;5099215;27;45255;-52
2022/09/25 07:53:50;;;;;;;;;6.67;4.00;;;;;14.95;62.29;101258.84;5099752;27;45275;-44
2022/09/25 07:56:16;;;;;;;;;5.00;5.00;;;;;15.01;62.21;101268.94;5098454;27;45653;-53
2022/09/25 07:58:42;;;;;;;;;5.00;4.00;;;;;15.04;62.01;101265.06;5099542;27;45215;-46
2022/09/25 08:01:10;;;;;;;;;7.00;3.00;;;;;15.09;61.93;101268.97;5099394;27;45141;-46
2022/09/25 08:03:36;;;;;;;;;4.00;2.67;;;;;15.15;61.90;101262.09;5099489;27;45396;-50
2022/09/25 08:06:04;;;;;;;;;4.00;3.00;;;;;15.20;61.67;101255.25;5099079;27;46519;-44
2022/09/25 08:08:32;;;;;;;;;2.67;2.67;;;;;15.30;61.13;101257.78;5099289;27;45470;-51
2022/09/25 08:11:03;;;;;;;;;8.00;4.00;;;;;15.41;60.98;101261.97;5099157;27;45319;-55
2022/09/25 08:13:31;;;;;;;;;5.67;4.00;;;;;15.45;60.61;101256.13;5081005;27;45327;-54
2022/09/25 08:15:56;;;;;;;;;5.33;4.00;;;;;15.53;60.25;101252.63;5099079;27;46343;-49
2022/09/25 08:18:22;;;;;;;;;5.00;5.00;;;;;15.86;60.10;101261.53;5099289;27;45341;-54
2022/09/25 08:20:47;;;;;;;;;4.67;3.67;;;;;16.37;58.92;101254.06;5099173;27;45318;-43
2022/09/25 08:23:12;;;;;;;;;3.00;3.00;;;;;17.29;56.38;101254.34;5099194;27;45339;-49
2022/09/25 08:25:37;;;;;;;;;3.67;3.00;;;;;18.72;53.48;101253.56;5080514;27;46984;-48
2022/09/25 08:28:03;;;;;;;;;3.00;3.00;;;;;20.53;50.76;101259.44;5098823;27;45434;-44
2022/09/25 08:30:28;;;;;;;;;6.00;3.25;;;;;22.20;46.41;101263.34;5098937;27;45323;-49
2022/09/25 08:32:53;;;;;;;;;5.75;4.00;;;;;23.53;42.32;101248.22;5099086;27;45355;-46
2022/09/25 08:35:20;;;;;;;;;3.75;2.50;;;;;24.69;40.89;101257.59;5098408;27;46106;-43
2022/09/25 08:37:47;;;;;;;;;2.60;1.80;;;;;25.61;40.25;101260.97;5098714;27;45513;-66
2022/09/25 08:40:29;;;;;;;;;4.00;3.00;;;;;26.32;37.86;101258.31;5098787;27;45473;-51
2022/09/25 08:42:55;;;;;;;;;2.00;1.00;;;;;27.16;35.17;101258.75;5098665;27;45401;-55
2022/09/25 08:51:13;;;;;;;;;1.00;1.00;;;;;29.44;31.52;101250.50;5098695;27;45441;-50
2022/09/25 08:53:41;;;;;;;;;3.00;1.50;;;;;29.95;33.98;101239.97;5098962;27;45323;-47
2022/09/25 08:56:13;;;;;;;;;2.60;1.00;;;;;30.21;31.94;101241.00;5098291;27;46161;-53
2022/09/25 08:58:42;;;;;;;;;4.40;3.00;;;;;30.73;29.06;101248.44;5098460;27;45370;-44
2022/09/25 09:01:34;;;;;;;;;2.80;1.00;;;;;31.30;28.75;101244.72;5098777;27;45418;-44
2022/09/25 09:04:20;;;;;;;;;1.00;1.00;;;;;31.71;29.80;101244.75;5097815;27;45417;-47
2022/09/25 09:06:50;;;;;;;;;2.40;1.00;;;;;31.97;26.90;101245.56;5098430;27;46346;-55
2022/09/25 09:09:35;;;;;;;;;2.00;2.00;;;;;32.24;26.45;101246.06;5098260;27;45280;-48
2022/09/25 09:12:08;;;;;;;;;1.00;1.00;;;;;32.49;27.03;101247.13;5097582;27;45360;-45
2022/09/25 09:14:42;;;;;;;;;3.20;1.00;;;;;32.79;25.29;101254.44;5098409;27;45473;-44
2022/09/25 09:17:25;;;;;;;;;2.00;2.00;;;;;32.92;24.85;101255.75;5098001;27;45247;-59
2022/09/25 09:20:01;;;;;;;;;2.60;1.80;;;;;32.96;25.42;101241.13;5098107;27;45371;-44
2022/09/25 09:22:36;;;;;;;;;0.80;0.80;;;;;33.09;24.60;101256.22;5098314;27;45264;-42
2022/09/25 09:25:24;;;;;;;;;1.40;1.40;;;;;33.33;24.89;101263.75;5098299;27;45243;-46
2022/09/25 09:28:27;;;;;;;;;2.20;1.40;;;;;33.54;26.41;101257.00;5097826;27;45463;-49
2022/09/25 09:31:06;;;;;;;;;1.20;1.20;;;;;33.41;25.91;101254.88;5097651;27;45366;-42
2022/09/25 09:33:34;;;;;;;;;1.80;1.80;;;;;33.20;25.04;101249.50;5098121;27;45378;-47
2022/09/25 09:36:33;;;;;;;;;2.80;0.00;;;;;32.70;25.53;101254.19;5098320;27;45187;-50
2022/09/25 09:39:10;;;;;;;;;2.00;2.00;;;;;32.50;25.28;101260.59;5097847;27;46342;-45
2022/09/25 09:41:45;;;;;;;;;0.00;0.00;;;;;31.87;25.85;101251.91;5097761;27;45493;-58
2022/09/25 09:44:18;;;;;;;;;0.40;0.00;;;;;31.21;29.73;101254.59;5098018;27;45425;-47
2022/09/25 09:46:58;;;;;;;;;1.40;1.40;;;;;30.79;28.95;101252.81;5098157;27;45449;-46
2022/09/25 09:49:36;;;;;;;;;1.00;0.80;;;;;30.65;27.43;101246.16;5097330;27;45420;-46
2022/09/25 09:52:10;;;;;;;;;1.00;1.00;;;;;30.57;25.83;101251.06;5096314;27;45475;-53
2022/09/25 09:55:00;;;;;;;;;1.00;0.20;;;;;30.80;26.00;101248.97;5098091;27;45315;-46
2022/09/25 09:57:43;;;;;;;;;0.40;0.00;;;;;31.06;29.88;101249.91;5097747;27;45462;-49
2022/09/25 10:00:17;;;;;;;;;0.00;0.00;;;;;31.23;26.92;101239.47;5097656;27;45371;-43
2022/09/25 10:02:48;;;;;;;;;3.00;1.00;;;;;31.44;25.04;101236.78;5097614;27;45294;-49
2022/09/25 10:05:31;;;;;;;;;0.00;0.00;;;;;31.74;24.41;101246.94;5097559;27;45346;-45
2022/09/25 10:07:57;;;;;;;;;0.00;0.00;;;;;32.04;26.53;101238.69;5097928;27;45363;-45
2022/09/25 10:10:33;;;;;;;;;0.25;0.25;;;;;32.88;25.26;101238.94;5079421;27;45433;-47
2022/09/25 10:13:04;;;;;;;;;0.00;0.00;;;;;34.83;23.15;101252.63;5097552;27;45417;-43
2022/09/25 10:15:34;;;;;;;;;2.20;1.60;;;;;37.12;18.58;101249.59;5081093;27;45560;-47
2022/09/25 10:18:02;;;;;;;;;0.00;0.00;;;;;39.01;18.54;101250.06;5101393;27;45266;-50
2022/09/25 10:20:45;;;;;;;;;1.80;0.00;;;;;40.45;16.41;101242.03;5101071;27;47086;-45
2022/09/25 10:23:28;;;;;;;;;0.20;0.20;;;;;41.36;15.74;101242.38;5100871;27;45423;-58
2022/09/25 10:25:53;;;;;;;;;1.00;1.00;;;;;42.05;17.75;101236.03;5101377;27;45315;-54
2022/09/25 10:28:25;;;;;;;;;2.00;0.00;;;;;42.47;17.74;101232.19;5101261;27;45320;-63
2022/09/25 10:30:51;;;;;;;;;2.00;0.80;;;;;43.17;12.99;101229.97;5099812;27;45627;-58
2022/09/25 10:33:23;;;;;;;;;1.00;1.00;;;;;43.93;14.15;101227.22;5101315;27;45378;-56
2022/09/25 10:35:50;;;;;;;;;1.40;1.40;;;;;44.62;12.06;101214.44;5100675;27;45395;-65
2022/09/25 10:38:48;;;;;;;;;1.00;1.00;;;;;45.22;12.33;101219.75;5101272;27;45450;-64
2022/09/25 10:41:18;;;;;;;;;0.00;0.00;;;;;45.81;12.02;101215.66;4997532;28;46158;-65
2022/09/25 10:44:30;;;;;;;;;0.20;0.00;;;;;46.39;12.25;101215.34;4997721;28;45302;-50
2022/09/25 10:52:48;;;;;;;;;0.00;0.00;;;;;47.09;11.06;101218.69;4997593;28;45799;-62
2022/09/25 10:55:27;;;;;;;;;0.20;0.20;;;;;47.17;11.34;101207.13;4997647;28;45294;-53
2022/09/25 10:58:05;;;;;;;;;1.00;1.00;;;;;47.33;11.41;101204.09;4997589;28;45476;-49
2022/09/25 11:00:38;;;;;;;;;0.00;0.00;;;;;47.66;10.74;101213.66;4997668;28;45556;-58
2022/09/25 11:03:05;;;;;;;;;1.80;0.80;;;;;47.92;10.82;101202.22;4997267;28;46190;-65
2022/09/25 11:05:34;;;;;;;;;0.00;0.00;;;;;48.13;10.85;101215.69;4997520;28;45368;-43
2022/09/25 11:08:04;;;;;;;;;0.20;0.20;;;;;48.10;10.28;101210.03;4997668;28;45385;-72
2022/09/25 11:10:35;;;;;;;;;0.00;0.00;;;;;48.14;10.08;101210.88;4997486;28;45517;-61
2022/09/25 11:13:19;;;;;;;;;0.00;0.00;;;;;48.19;10.46;101218.94;4997338;28;45382;-67
2022/09/25 11:15:52;;;;;;;;;0.00;0.00;;;;;48.10;10.88;101212.84;4997574;28;45518;-61
2022/09/25 11:18:45;;;;;;;;;0.00;0.00;;;;;48.18;10.20;101222.97;5045012;28;45501;-68
2022/09/25 11:21:26;;;;;;;;;0.20;0.00;;;;;48.18;9.99;101223.78;5080601;28;45189;-59
2022/09/25 11:24:07;;;;;;;;;1.60;1.60;;;;;48.31;9.58;101218.63;5079480;28;47038;-57
2022/09/25 11:26:39;;;;;;;;;0.20;0.20;;;;;48.17;9.58;101229.84;5078802;28;45350;-65
2022/09/25 11:29:31;;;;;;;;;1.80;0.80;;;;;47.98;9.61;101225.22;5079639;28;45295;-55
2022/09/25 11:32:28;;;;;;;;;1.60;0.20;;;;;48.05;9.98;101224.50;5079766;28;45331;-71
2022/09/25 11:35:04;;;;;;;;;0.00;0.00;;;;;47.92;9.58;101223.97;5078332;28;46064;-58
2022/09/25 11:37:39;;;;;;;;;0.60;0.40;;;;;47.52;10.11;101230.44;5079503;28;45462;-59
2022/09/25 11:43:08;;;;;;;;;0.80;0.80;;;;;47.12;10.23;101220.75;5098190;27;45200;-58
2022/09/25 11:45:46;;;;;;;;;1.20;0.00;;;;;47.04;11.31;101214.22;5099733;27;46191;-75
2022/09/25 11:48:29;;;;;;;;;0.00;0.00;;;;;46.90;11.50;101211.19;5099885;27;45327;-58
2022/09/25 11:51:13;;;;;;;;;0.60;0.60;;;;;46.79;11.01;101211.09;5098454;27;45201;-65
2022/09/25 11:54:19;;;;;;;;;0.00;0.00;;;;;46.46;11.55;101212.63;5100205;27;45541;-74
2022/09/25 11:56:56;;;;;;;;;0.00;0.00;;;;;46.02;10.64;101207.56;5085097;27;46299;-66
2022/09/25 11:59:30;;;;;;;;;0.00;0.00;;;;;45.51;11.24;101209.84;5099486;27;45401;-66
2022/09/25 12:02:26;;;;;;;;;1.00;0.00;;;;;45.03;11.16;101207.34;5100116;27;45247;-76